Time;durP1;ratioP1;P1;durP2;ratioP2;P2;SDS_P1;SDS_P2;PMS_P1;PMS_P2;Temp;Humidity;BMP_temperature;BMP_pressure;BME280_temperature;BME280_humidity;BME280_pressure;Samples;Min_cycle;Max_cycle;Signal;HPM_P1;HPM_P2
2021/11/14 00:00:12;;;;;;;22.80;14.43;;;;;;;;;;4992254;28;20481;-49
2021/11/14 00:02:38;;;;;;;18.80;13.40;;;;;;;;;;4992492;28;20490;-49
2021/11/14 00:05:05;;;;;;;19.53;12.97;;;;;;;;;;4992477;28;21005;-49
2021/11/14 00:07:31;;;;;;;25.30;14.73;;;;;;;;;;4992546;28;20503;-49
2021/11/14 00:09:57;;;;;;;19.97;13.70;;;;;;;;;;4992195;28;20520;-49
2021/11/14 00:12:23;;;;;;;21.60;13.23;;;;;;;;;;4992406;28;20522;-49
2021/11/14 00:14:49;;;;;;;17.10;13.50;;;;;;;;;;4992365;28;20543;-49
2021/11/14 00:17:15;;;;;;;19.60;13.70;;;;;;;;;;4992163;28;20404;-49
2021/11/14 00:19:41;;;;;;;27.60;13.93;;;;;;;;;;4992048;28;20771;-49
2021/11/14 00:22:07;;;;;;;20.57;13.70;;;;;;;;;;4992357;28;20434;-49
2021/11/14 00:24:33;;;;;;;20.23;13.10;;;;;;;;;;4992558;28;20417;-49
2021/11/14 00:26:59;;;;;;;19.37;12.40;;;;;;;;;;4992445;28;20767;-49
2021/11/14 00:29:25;;;;;;;20.30;14.20;;;;;;;;;;4991985;28;20427;-50
2021/11/14 00:31:51;;;;;;;22.57;14.03;;;;;;;;;;4992233;28;20496;-50
2021/11/14 00:34:17;;;;;;;21.17;13.80;;;;;;;;;;4992156;28;20891;-51
2021/11/14 00:36:43;;;;;;;18.30;13.70;;;;;;;;;;4992211;28;20411;-49
2021/11/14 00:39:18;;;;;;;20.63;13.60;;;;;;;;;;4991987;28;20450;-51
2021/11/14 00:41:45;;;;;;;19.87;12.77;;;;;;;;;;4992407;28;20799;-49
2021/11/14 00:44:11;;;;;;;17.60;13.90;;;;;;;;;;4992194;28;20462;-48
2021/11/14 00:46:39;;;;;;;17.33;13.00;;;;;;;;;;4992016;28;20879;-49
2021/11/14 00:49:04;;;;;;;16.10;11.73;;;;;;;;;;4991881;28;20430;-50
2021/11/14 00:51:30;;;;;;;18.40;12.67;;;;;;;;;;4992364;28;20405;-50
2021/11/14 00:53:58;;;;;;;16.73;12.63;;;;;;;;;;4992408;28;20439;-50
2021/11/14 00:56:24;;;;;;;19.00;13.37;;;;;;;;;;4991886;28;20456;-51
2021/11/14 00:58:50;;;;;;;18.47;13.00;;;;;;;;;;4990610;28;20455;-51
2021/11/14 01:01:17;;;;;;;17.70;12.70;;;;;;;;;;4991950;28;20799;-51
2021/11/14 01:03:43;;;;;;;17.73;12.97;;;;;;;;;;4992051;28;20435;-49
2021/11/14 01:06:09;;;;;;;16.87;13.20;;;;;;;;;;4991874;28;20901;-50
2021/11/14 01:08:35;;;;;;;18.50;12.60;;;;;;;;;;4991685;28;20435;-52
2021/11/14 01:11:03;;;;;;;18.93;12.70;;;;;;;;;;4991775;28;20436;-52
2021/11/14 01:13:29;;;;;;;16.67;12.73;;;;;;;;;;4991896;28;20400;-48
2021/11/14 01:15:56;;;;;;;17.43;12.77;;;;;;;;;;4991697;28;20455;-49
2021/11/14 01:18:22;;;;;;;15.07;11.80;;;;;;;;;;4991747;28;20431;-49
2021/11/14 01:20:50;;;;;;;17.17;12.73;;;;;;;;;;4991819;28;20483;-50
2021/11/14 01:23:16;;;;;;;18.10;13.07;;;;;;;;;;4991824;28;20824;-49
2021/11/14 01:25:43;;;;;;;22.73;14.00;;;;;;;;;;4991671;28;20408;-50
2021/11/14 01:28:09;;;;;;;16.20;13.13;;;;;;;;;;4993045;28;20748;-53
2021/11/14 01:30:39;;;;;;;21.13;12.80;;;;;;;;;;4995060;28;20782;-49
2021/11/14 01:33:05;;;;;;;19.23;13.77;;;;;;;;;;4995222;28;20400;-51
2021/11/14 01:35:32;;;;;;;17.77;12.80;;;;;;;;;;4995118;28;20823;-49
2021/11/14 01:37:58;;;;;;;17.23;12.77;;;;;;;;;;4995100;28;20957;-49
2021/11/14 01:40:29;;;;;;;20.07;13.80;;;;;;;;;;4994781;28;20424;-49
2021/11/14 01:42:55;;;;;;;13.83;12.00;;;;;;;;;;4995242;28;20783;-49
2021/11/14 01:45:21;;;;;;;18.87;12.87;;;;;;;;;;4994982;28;20412;-48
2021/11/14 01:47:48;;;;;;;19.10;13.37;;;;;;;;;;4994927;28;20411;-50
2021/11/14 01:50:15;;;;;;;19.10;13.57;;;;;;;;;;4994583;28;20830;-49
2021/11/14 01:52:43;;;;;;;17.37;13.77;;;;;;;;;;4994922;28;20411;-49
2021/11/14 01:55:10;;;;;;;16.23;13.43;;;;;;;;;;4994718;28;20534;-49
2021/11/14 01:57:37;;;;;;;17.07;13.20;;;;;;;;;;4994702;28;20428;-49
2021/11/14 02:00:05;;;;;;;19.60;13.27;;;;;;;;;;4994528;28;20442;-49
2021/11/14 02:02:30;;;;;;;18.03;12.97;;;;;;;;;;4994637;28;20832;-51
2021/11/14 02:04:56;;;;;;;19.70;12.37;;;;;;;;;;4994797;28;20403;-49
2021/11/14 02:07:22;;;;;;;17.00;12.70;;;;;;;;;;4994482;28;20774;-48
2021/11/14 02:09:48;;;;;;;19.27;12.50;;;;;;;;;;4994233;28;20436;-49
2021/11/14 02:12:15;;;;;;;16.97;11.77;;;;;;;;;;4994372;28;20518;-48
2021/11/14 02:14:41;;;;;;;23.47;13.30;;;;;;;;;;4994538;28;20448;-49
2021/11/14 02:17:08;;;;;;;19.60;12.77;;;;;;;;;;4994555;28;20957;-50
2021/11/14 02:19:34;;;;;;;16.30;12.33;;;;;;;;;;4994145;28;20533;-50
2021/11/14 02:22:00;;;;;;;19.37;11.73;;;;;;;;;;4994262;28;20427;-51
2021/11/14 02:24:26;;;;;;;15.90;12.80;;;;;;;;;;4994236;28;20934;-49
2021/11/14 02:26:52;;;;;;;19.27;12.23;;;;;;;;;;4994197;28;20404;-48
2021/11/14 02:29:18;;;;;;;16.27;13.80;;;;;;;;;;4993880;28;20424;-52
2021/11/14 02:31:44;;;;;;;18.70;12.50;;;;;;;;;;4994097;28;20565;-49
2021/11/14 02:34:11;;;;;;;20.43;12.73;;;;;;;;;;4994204;28;20392;-49
2021/11/14 02:36:37;;;;;;;18.37;13.20;;;;;;;;;;4993961;28;20421;-51
2021/11/14 02:39:04;;;;;;;23.10;13.80;;;;;;;;;;4992572;28;20423;-50
2021/11/14 02:41:30;;;;;;;16.63;12.47;;;;;;;;;;4993939;28;20895;-48
2021/11/14 02:43:57;;;;;;;23.07;13.50;;;;;;;;;;4993907;28;20410;-49
2021/11/14 02:46:23;;;;;;;23.77;12.90;;;;;;;;;;4993825;28;20871;-49
2021/11/14 02:48:49;;;;;;;16.77;12.60;;;;;;;;;;4993592;28;20463;-49
2021/11/14 02:51:20;;;;;;;19.10;12.60;;;;;;;;;;4993678;28;20888;-49
2021/11/14 02:53:46;;;;;;;20.20;13.93;;;;;;;;;;4993719;28;20912;-49
2021/11/14 02:56:13;;;;;;;15.00;11.67;;;;;;;;;;4993474;28;20451;-49
2021/11/14 02:58:39;;;;;;;15.90;11.50;;;;;;;;;;4993494;28;20445;-49
2021/11/14 03:01:12;;;;;;;13.73;11.10;;;;;;;;;;4993484;28;20412;-49
2021/11/14 03:03:38;;;;;;;17.53;10.97;;;;;;;;;;4993618;28;20756;-49
2021/11/14 03:06:04;;;;;;;17.67;13.00;;;;;;;;;;4993369;28;20408;-49
2021/11/14 03:08:31;;;;;;;17.47;10.83;;;;;;;;;;4993224;28;20479;-49
2021/11/14 03:10:57;;;;;;;17.00;12.30;;;;;;;;;;4993461;28;20844;-49
2021/11/14 03:13:23;;;;;;;17.33;11.80;;;;;;;;;;4993329;28;20498;-49
2021/11/14 03:15:55;;;;;;;16.87;12.90;;;;;;;;;;4993202;28;20984;-50
2021/11/14 03:18:22;;;;;;;17.40;12.33;;;;;;;;;;4992919;28;20583;-49
2021/11/14 03:20:49;;;;;;;16.53;10.70;;;;;;;;;;4993224;28;20439;-50
2021/11/14 03:23:15;;;;;;;19.50;11.73;;;;;;;;;;4993128;28;20893;-48
2021/11/14 03:25:42;;;;;;;17.23;11.73;;;;;;;;;;4993253;28;20412;-48
2021/11/14 03:28:08;;;;;;;17.63;11.83;;;;;;;;;;4992953;28;20407;-49
2021/11/14 03:30:34;;;;;;;16.60;11.40;;;;;;;;;;4993718;28;20424;-49
2021/11/14 03:33:01;;;;;;;14.80;11.77;;;;;;;;;;4993121;28;20756;-49
2021/11/14 03:35:27;;;;;;;15.80;12.10;;;;;;;;;;4993080;28;20815;-49
2021/11/14 03:37:53;;;;;;;16.83;12.00;;;;;;;;;;4993000;28;20400;-49
2021/11/14 03:40:20;;;;;;;17.13;11.37;;;;;;;;;;4992637;28;20463;-50
2021/11/14 03:42:47;;;;;;;13.80;10.57;;;;;;;;;;4992779;28;20921;-50
2021/11/14 03:45:13;;;;;;;16.93;11.57;;;;;;;;;;4992818;28;20938;-50
2021/11/14 03:47:39;;;;;;;21.63;11.93;;;;;;;;;;4992551;28;20950;-50
2021/11/14 03:50:07;;;;;;;15.33;11.80;;;;;;;;;;4992154;28;20535;-49
2021/11/14 03:52:33;;;;;;;19.40;13.30;;;;;;;;;;4992704;28;20404;-50
2021/11/14 03:54:59;;;;;;;19.87;13.27;;;;;;;;;;4992679;28;20460;-50
2021/11/14 03:57:25;;;;;;;17.83;11.80;;;;;;;;;;4992511;28;20400;-50
2021/11/14 03:59:52;;;;;;;19.17;12.67;;;;;;;;;;4992393;28;20915;-51
2021/11/14 04:02:18;;;;;;;19.13;12.50;;;;;;;;;;4992488;28;20418;-51
2021/11/14 04:04:44;;;;;;;17.57;12.57;;;;;;;;;;4992654;28;20455;-50
2021/11/14 04:07:10;;;;;;;20.17;12.20;;;;;;;;;;4992423;28;20406;-49
2021/11/14 04:09:36;;;;;;;15.50;11.87;;;;;;;;;;4992251;28;20499;-50
2021/11/14 04:12:03;;;;;;;15.20;11.20;;;;;;;;;;4992322;28;20913;-49
2021/11/14 04:14:29;;;;;;;15.27;11.13;;;;;;;;;;4992441;28;20550;-49
2021/11/14 04:16:55;;;;;;;14.67;10.60;;;;;;;;;;4992268;28;20419;-50
2021/11/14 04:19:22;;;;;;;14.33;10.30;;;;;;;;;;4992096;28;20431;-50
2021/11/14 04:21:48;;;;;;;14.87;9.53;;;;;;;;;;4992449;28;20398;-50
2021/11/14 04:24:14;;;;;;;12.50;10.20;;;;;;;;;;4992273;28;20407;-49
2021/11/14 04:26:40;;;;;;;11.20;9.87;;;;;;;;;;4992299;28;20444;-49
2021/11/14 04:29:06;;;;;;;13.87;10.20;;;;;;;;;;4991956;28;20430;-51
2021/11/14 04:31:32;;;;;;;12.53;9.70;;;;;;;;;;4992696;28;20499;-50
2021/11/14 04:33:58;;;;;;;12.80;9.27;;;;;;;;;;4992224;28;20426;-50
2021/11/14 04:36:24;;;;;;;11.80;9.20;;;;;;;;;;4992132;28;20451;-49
2021/11/14 04:38:50;;;;;;;15.90;9.70;;;;;;;;;;4991889;28;20482;-49
2021/11/14 04:41:16;;;;;;;14.90;10.67;;;;;;;;;;4992203;28;20410;-50
2021/11/14 04:43:41;;;;;;;16.20;9.10;;;;;;;;;;4992116;28;20453;-50
2021/11/14 04:46:08;;;;;;;12.87;9.50;;;;;;;;;;4992068;28;20472;-49
2021/11/14 04:48:34;;;;;;;15.37;9.03;;;;;;;;;;4991780;28;20521;-51
2021/11/14 04:50:59;;;;;;;13.07;9.00;;;;;;;;;;4992174;28;20540;-49
2021/11/14 04:53:26;;;;;;;14.23;9.30;;;;;;;;;;4992018;28;20482;-49
2021/11/14 04:55:52;;;;;;;13.60;10.00;;;;;;;;;;4991997;28;20993;-50
2021/11/14 04:58:18;;;;;;;13.53;8.47;;;;;;;;;;4991684;28;20505;-50
2021/11/14 05:00:51;;;;;;;11.50;7.60;;;;;;;;;;4992097;28;20457;-50
2021/11/14 05:03:18;;;;;;;13.77;10.43;;;;;;;;;;4993853;28;20486;-51
2021/11/14 05:05:44;;;;;;;16.13;10.03;;;;;;;;;;4995718;28;20408;-50
2021/11/14 05:08:10;;;;;;;17.37;11.20;;;;;;;;;;4995532;28;21265;-50
2021/11/14 05:10:37;;;;;;;15.00;10.17;;;;;;;;;;4995531;28;20423;-50
2021/11/14 05:13:03;;;;;;;12.53;9.23;;;;;;;;;;4995519;28;20425;-49
2021/11/14 05:15:30;;;;;;;16.57;9.77;;;;;;;;;;4995425;28;20463;-49
2021/11/14 05:17:56;;;;;;;12.73;9.57;;;;;;;;;;4995452;28;20469;-49
2021/11/14 05:20:22;;;;;;;11.60;9.40;;;;;;;;;;4995258;28;20425;-50
2021/11/14 05:22:48;;;;;;;10.97;8.97;;;;;;;;;;4995388;28;20413;-49
2021/11/14 05:25:14;;;;;;;15.17;10.57;;;;;;;;;;4995355;28;20490;-50
2021/11/14 05:27:40;;;;;;;14.97;10.37;;;;;;;;;;4995696;28;20504;-49
2021/11/14 05:30:08;;;;;;;14.33;9.60;;;;;;;;;;4995030;28;20439;-50
2021/11/14 05:32:34;;;;;;;15.20;9.40;;;;;;;;;;4995313;28;20415;-49
2021/11/14 05:35:00;;;;;;;16.00;10.20;;;;;;;;;;4995166;28;20509;-49
2021/11/14 05:37:26;;;;;;;12.27;9.93;;;;;;;;;;4995153;28;21017;-50
2021/11/14 05:39:52;;;;;;;15.90;10.20;;;;;;;;;;4994877;28;20512;-51
2021/11/14 05:42:18;;;;;;;11.97;9.80;;;;;;;;;;4995010;28;20407;-49
2021/11/14 05:44:44;;;;;;;19.87;10.93;;;;;;;;;;4995036;28;20404;-50
2021/11/14 05:47:10;;;;;;;15.70;10.90;;;;;;;;;;4995044;28;20403;-50
2021/11/14 05:49:36;;;;;;;17.80;11.37;;;;;;;;;;4994629;28;20428;-51
2021/11/14 05:52:02;;;;;;;21.03;12.80;;;;;;;;;;4994955;28;20403;-49
2021/11/14 05:54:28;;;;;;;16.83;11.70;;;;;;;;;;4994727;28;20405;-50
2021/11/14 05:56:54;;;;;;;19.87;12.10;;;;;;;;;;4994606;28;20409;-49
2021/11/14 06:07:14;;;;;;;20.70;12.77;;;;;;;;;;4994569;28;20466;-49
2021/11/14 06:09:40;;;;;;;19.43;12.33;;;;;;;;;;4994163;28;20443;-49
2021/11/14 06:12:06;;;;;;;16.33;12.37;;;;;;;;;;4994643;28;20431;-50
2021/11/14 06:14:33;;;;;;;19.87;13.23;;;;;;;;;;4994092;28;20468;-49
2021/11/14 06:17:00;;;;;;;17.80;11.33;;;;;;;;;;4994604;28;20458;-49
2021/11/14 06:19:26;;;;;;;14.50;11.67;;;;;;;;;;4994150;28;20425;-49
2021/11/14 06:21:52;;;;;;;15.47;11.43;;;;;;;;;;4994314;28;20521;-50
2021/11/14 06:24:18;;;;;;;16.10;11.30;;;;;;;;;;4994327;28;20411;-49
2021/11/14 06:26:45;;;;;;;21.37;12.93;;;;;;;;;;4994280;28;20785;-50
2021/11/14 06:29:11;;;;;;;17.50;11.17;;;;;;;;;;4993977;28;20433;-49
2021/11/14 06:31:37;;;;;;;16.90;12.10;;;;;;;;;;4994224;28;20452;-49
2021/11/14 06:34:03;;;;;;;17.20;12.27;;;;;;;;;;4994152;28;20430;-52
2021/11/14 06:36:29;;;;;;;17.13;11.03;;;;;;;;;;4993898;28;20490;-49
2021/11/14 06:38:55;;;;;;;17.70;12.90;;;;;;;;;;4993712;28;20457;-50
2021/11/14 06:41:21;;;;;;;18.57;11.83;;;;;;;;;;4994035;28;21059;-49
2021/11/14 06:43:47;;;;;;;17.73;12.60;;;;;;;;;;4993937;28;20413;-50
2021/11/14 06:46:15;;;;;;;13.60;11.67;;;;;;;;;;4993901;28;20417;-50
2021/11/14 06:48:41;;;;;;;23.00;13.50;;;;;;;;;;4993548;28;20501;-49
2021/11/14 06:51:07;;;;;;;18.30;12.43;;;;;;;;;;4993804;28;20438;-49
2021/11/14 06:53:33;;;;;;;17.77;12.73;;;;;;;;;;4993771;28;20410;-50
2021/11/14 06:55:59;;;;;;;17.73;13.37;;;;;;;;;;4993519;28;20461;-49
2021/11/14 06:58:25;;;;;;;15.30;11.40;;;;;;;;;;4993389;28;20408;-50
2021/11/14 07:00:51;;;;;;;18.63;12.90;;;;;;;;;;4993596;28;20442;-51
2021/11/14 07:03:17;;;;;;;26.20;13.10;;;;;;;;;;4993659;28;20871;-50
2021/11/14 07:05:44;;;;;;;16.43;12.00;;;;;;;;;;4993353;28;20492;-50
2021/11/14 07:08:10;;;;;;;19.20;14.93;;;;;;;;;;4993381;28;20434;-49
2021/11/14 07:10:36;;;;;;;21.10;14.37;;;;;;;;;;4993207;28;20427;-49
2021/11/14 07:13:02;;;;;;;29.80;15.47;;;;;;;;;;4993496;28;20470;-51
2021/11/14 07:15:28;;;;;;;18.53;13.23;;;;;;;;;;4993215;28;20451;-50
2021/11/14 07:17:54;;;;;;;24.70;12.90;;;;;;;;;;4993327;28;20438;-49
2021/11/14 07:20:20;;;;;;;19.47;13.17;;;;;;;;;;4992906;28;20449;-51
2021/11/14 07:22:47;;;;;;;19.10;13.60;;;;;;;;;;4993240;28;20417;-50
2021/11/14 07:25:19;;;;;;;18.77;13.03;;;;;;;;;;4992542;28;20458;-51
2021/11/14 07:27:45;;;;;;;19.17;12.17;;;;;;;;;;4993164;28;20409;-49
2021/11/14 07:30:12;;;;;;;21.57;14.27;;;;;;;;;;4992725;28;20951;-49
2021/11/14 07:32:40;;;;;;;20.10;13.27;;;;;;;;;;4993014;28;20418;-50
2021/11/14 07:35:06;;;;;;;22.50;13.37;;;;;;;;;;4992928;28;20460;-49
2021/11/14 07:37:32;;;;;;;16.37;12.77;;;;;;;;;;4992889;28;20419;-50
2021/11/14 07:39:58;;;;;;;19.23;13.50;;;;;;;;;;4992629;28;20418;-50
2021/11/14 07:42:24;;;;;;;19.97;13.80;;;;;;;;;;4992976;28;20417;-50
2021/11/14 07:44:50;;;;;;;19.07;11.90;;;;;;;;;;4992837;28;20460;-50
2021/11/14 07:47:16;;;;;;;19.47;13.47;;;;;;;;;;4992708;28;20409;-49
2021/11/14 07:49:42;;;;;;;19.03;12.43;;;;;;;;;;4992411;28;20760;-50
2021/11/14 07:52:08;;;;;;;22.30;13.23;;;;;;;;;;4992787;28;20889;-50
2021/11/14 07:54:34;;;;;;;20.70;13.03;;;;;;;;;;4992674;28;20843;-49
2021/11/14 07:57:00;;;;;;;19.77;12.87;;;;;;;;;;4992668;28;20495;-50
2021/11/14 07:59:26;;;;;;;21.80;13.33;;;;;;;;;;4992318;28;20521;-50
2021/11/14 08:01:53;;;;;;;19.83;12.17;;;;;;;;;;4992575;28;20405;-49
2021/11/14 08:04:19;;;;;;;20.20;12.87;;;;;;;;;;4992620;28;20397;-49
2021/11/14 08:06:44;;;;;;;18.23;11.87;;;;;;;;;;4992421;28;20400;-50
2021/11/14 08:09:10;;;;;;;20.83;12.20;;;;;;;;;;4992312;28;20424;-50
2021/11/14 08:11:37;;;;;;;19.47;13.13;;;;;;;;;;4992417;28;20433;-50
2021/11/14 08:14:03;;;;;;;25.70;13.00;;;;;;;;;;4991315;28;20440;-50
2021/11/14 08:16:29;;;;;;;21.90;12.83;;;;;;;;;;4991470;28;20557;-50
2021/11/14 08:18:55;;;;;;;17.20;11.93;;;;;;;;;;4991870;28;20457;-50
2021/11/14 08:21:21;;;;;;;19.40;12.63;;;;;;;;;;4991121;28;20408;-50
2021/11/14 08:23:47;;;;;;;17.53;12.57;;;;;;;;;;4992387;28;20407;-50
2021/11/14 08:26:13;;;;;;;20.83;13.10;;;;;;;;;;4992307;28;20397;-50
2021/11/14 08:28:39;;;;;;;16.07;11.63;;;;;;;;;;4992012;28;20926;-49
2021/11/14 08:31:05;;;;;;;19.53;13.03;;;;;;;;;;4992118;28;20412;-49
2021/11/14 08:33:32;;;;;;;19.30;12.10;;;;;;;;;;4992295;28;20404;-50
2021/11/14 08:35:58;;;;;;;18.40;12.10;;;;;;;;;;4985099;28;20522;-50
2021/11/14 08:38:24;;;;;;;21.80;14.20;;;;;;;;;;4995825;28;20465;-50
2021/11/14 08:40:50;;;;;;;18.30;12.30;;;;;;;;;;4996195;28;20415;-49
2021/11/14 08:43:16;;;;;;;21.50;12.70;;;;;;;;;;4996173;28;20413;-50
2021/11/14 08:45:42;;;;;;;20.70;12.80;;;;;;;;;;4995908;28;20439;-49
2021/11/14 08:48:08;;;;;;;14.43;10.60;;;;;;;;;;4995687;28;20442;-49
2021/11/14 08:50:35;;;;;;;18.60;12.03;;;;;;;;;;4995164;28;20419;-49
2021/11/14 08:53:01;;;;;;;19.17;10.73;;;;;;;;;;4996483;28;20400;-49
2021/11/14 08:55:29;;;;;;;16.17;11.13;;;;;;;;;;5000122;28;20473;-49
2021/11/14 08:57:55;;;;;;;15.63;10.87;;;;;;;;;;4999805;28;20400;-50
2021/11/14 09:00:23;;;;;;;15.80;10.73;;;;;;;;;;4999813;28;20420;-50
2021/11/14 09:02:53;;;;;;;17.43;12.30;;;;;;;;;;5000445;28;20456;-52
2021/11/14 09:05:21;;;;;;;20.00;11.10;;;;;;;;;;5000295;28;20832;-50
2021/11/14 09:07:47;;;;;;;18.63;11.63;;;;;;;;;;5000415;28;20735;-50
2021/11/14 09:10:13;;;;;;;13.50;10.30;;;;;;;;;;5000317;28;20435;-51
2021/11/14 09:12:39;;;;;;;16.13;9.70;;;;;;;;;;4999949;28;20488;-50
2021/11/14 09:15:06;;;;;;;17.03;11.40;;;;;;;;;;5000124;28;20487;-51
2021/11/14 09:17:32;;;;;;;16.00;10.83;;;;;;;;;;5000104;28;20494;-50
2021/11/14 09:19:58;;;;;;;18.23;11.50;;;;;;;;;;4999679;28;20463;-50
2021/11/14 09:22:24;;;;;;;18.63;12.83;;;;;;;;;;4999717;28;20407;-51
2021/11/14 09:24:50;;;;;;;18.00;11.90;;;;;;;;;;4998996;28;20422;-51
2021/11/14 09:27:16;;;;;;;18.07;10.57;;;;;;;;;;4997152;28;20412;-51
2021/11/14 09:29:42;;;;;;;16.17;11.30;;;;;;;;;;4997160;28;20565;-51
2021/11/14 09:32:08;;;;;;;21.20;12.47;;;;;;;;;;5023095;23;20483;-53
2021/11/14 09:34:34;;;;;;;16.93;11.50;;;;;;;;;;4995292;28;20447;-54
2021/11/14 09:37:01;;;;;;;19.67;12.43;;;;;;;;;;4995440;28;20412;-53
2021/11/14 09:39:27;;;;;;;19.50;11.70;;;;;;;;;;4995119;28;20461;-54
2021/11/14 09:41:53;;;;;;;18.03;12.23;;;;;;;;;;4995192;28;20499;-53
2021/11/14 09:44:19;;;;;;;15.50;10.40;;;;;;;;;;4995124;28;20903;-54
2021/11/14 09:46:50;;;;;;;22.17;12.40;;;;;;;;;;4995065;28;20494;-54
2021/11/14 09:49:16;;;;;;;17.43;11.90;;;;;;;;;;4994197;28;20412;-54
2021/11/14 09:51:43;;;;;;;20.87;12.60;;;;;;;;;;4994601;28;20433;-54
2021/11/14 09:54:10;;;;;;;17.77;11.80;;;;;;;;;;4994018;28;20419;-54
2021/11/14 09:56:36;;;;;;;19.40;13.37;;;;;;;;;;4993916;28;20455;-54
2021/11/14 09:59:02;;;;;;;22.67;12.83;;;;;;;;;;4994679;28;20926;-53
2021/11/14 10:01:28;;;;;;;18.30;11.87;;;;;;;;;;4995165;28;20485;-53
2021/11/14 10:03:54;;;;;;;18.23;12.43;;;;;;;;;;4994758;28;20781;-53
2021/11/14 10:06:23;;;;;;;20.47;12.20;;;;;;;;;;4994573;28;20409;-53
2021/11/14 10:08:49;;;;;;;21.83;12.20;;;;;;;;;;4989266;28;20510;-54
2021/11/14 10:11:15;;;;;;;21.60;12.03;;;;;;;;;;4994305;28;20420;-53
2021/11/14 10:13:46;;;;;;;20.20;12.90;;;;;;;;;;4994495;28;20798;-53
2021/11/14 10:16:13;;;;;;;18.70;12.17;;;;;;;;;;4994425;28;20870;-53
2021/11/14 10:18:39;;;;;;;20.13;12.87;;;;;;;;;;4994268;28;20412;-54
2021/11/14 10:21:06;;;;;;;16.10;10.43;;;;;;;;;;4993142;28;20468;-54
2021/11/14 10:23:33;;;;;;;16.43;10.60;;;;;;;;;;4993312;28;20420;-54
2021/11/14 10:26:04;;;;;;;16.63;11.77;;;;;;;;;;4993996;28;20793;-53
2021/11/14 10:28:30;;;;;;;17.83;11.60;;;;;;;;;;4994146;28;20420;-54
2021/11/14 10:30:56;;;;;;;17.40;10.90;;;;;;;;;;4994312;28;20408;-54
2021/11/14 10:33:23;;;;;;;17.33;11.30;;;;;;;;;;4993429;28;20486;-54
2021/11/14 10:35:51;;;;;;;17.63;10.47;;;;;;;;;;4994064;28;20506;-53
2021/11/14 10:38:19;;;;;;;16.97;10.47;;;;;;;;;;4994039;28;20400;-54
2021/11/14 10:40:46;;;;;;;16.90;11.07;;;;;;;;;;4994056;28;20827;-54
2021/11/14 10:43:13;;;;;;;16.33;10.93;;;;;;;;;;4994178;28;20859;-54
2021/11/14 10:45:40;;;;;;;15.47;10.43;;;;;;;;;;4993925;28;20404;-54
2021/11/14 10:48:07;;;;;;;16.57;10.10;;;;;;;;;;4993948;28;20468;-54
2021/11/14 10:50:35;;;;;;;17.03;10.50;;;;;;;;;;4993796;28;20880;-54
2021/11/14 10:53:02;;;;;;;14.00;9.50;;;;;;;;;;4993855;28;20984;-54
2021/11/14 10:55:31;;;;;;;15.30;10.20;;;;;;;;;;4993783;28;20842;-54
2021/11/14 10:57:57;;;;;;;12.87;9.00;;;;;;;;;;4993833;28;20412;-54
2021/11/14 11:00:25;;;;;;;13.50;9.30;;;;;;;;;;4992679;28;20405;-54
2021/11/14 11:02:51;;;;;;;15.00;8.93;;;;;;;;;;4993569;28;20434;-54
2021/11/14 11:05:21;;;;;;;13.80;9.23;;;;;;;;;;4993713;28;20422;-54
2021/11/14 11:08:00;;;;;;;11.80;8.50;;;;;;;;;;4993461;28;20460;-54
2021/11/14 11:10:31;;;;;;;13.30;8.47;;;;;;;;;;4993372;28;20477;-54
2021/11/14 11:12:57;;;;;;;14.10;10.30;;;;;;;;;;4993453;28;20437;-54
2021/11/14 11:15:23;;;;;;;9.73;7.90;;;;;;;;;;4993400;28;20465;-54
2021/11/14 11:17:51;;;;;;;13.87;8.30;;;;;;;;;;4993321;28;20403;-54
2021/11/14 11:20:20;;;;;;;12.60;8.10;;;;;;;;;;4993225;28;20910;-54
2021/11/14 11:22:57;;;;;;;10.77;8.00;;;;;;;;;;5069054;28;20523;-53
2021/11/14 11:25:38;;;;;;;11.80;8.23;;;;;;;;;;5069281;28;20408;-53
2021/11/14 11:28:06;;;;;;;11.60;8.47;;;;;;;;;;5069119;28;20389;-53
2021/11/14 11:30:44;;;;;;;17.40;10.10;;;;;;;;;;5068901;28;20444;-53
2021/11/14 11:33:10;;;;;;;15.33;9.87;;;;;;;;;;5069020;28;20410;-54
2021/11/14 11:35:36;;;;;;;12.60;8.07;;;;;;;;;;5068991;28;20417;-53
2021/11/14 11:38:03;;;;;;;11.07;8.70;;;;;;;;;;5069062;28;20409;-54
2021/11/14 11:40:30;;;;;;;14.90;10.90;;;;;;;;;;5068847;28;20395;-53
2021/11/14 11:42:56;;;;;;;15.10;8.87;;;;;;;;;;5068754;28;20431;-53
2021/11/14 11:45:43;;;;;;;15.13;9.43;;;;;;;;;;5068870;28;20804;-54
2021/11/14 11:48:17;;;;;;;13.53;9.40;;;;;;;;;;5068741;28;20899;-53
2021/11/14 11:50:43;;;;;;;12.20;9.57;;;;;;;;;;5068723;28;20952;-53
2021/11/14 11:53:18;;;;;;;12.70;9.07;;;;;;;;;;5068673;28;20451;-54
2021/11/14 11:55:44;;;;;;;12.33;9.17;;;;;;;;;;5068533;28;20374;-54
2021/11/14 11:58:12;;;;;;;16.70;8.87;;;;;;;;;;5068501;28;20415;-54
2021/11/14 12:00:52;;;;;;;10.60;8.47;;;;;;;;;;5068595;28;20461;-54
2021/11/14 12:03:34;;;;;;;10.37;8.20;;;;;;;;;;5068377;28;20983;-54
2021/11/14 12:06:01;;;;;;;10.17;8.70;;;;;;;;;;5068349;28;20903;-54
2021/11/14 12:08:35;;;;;;;11.70;8.47;;;;;;;;;;5068044;28;20419;-54
2021/11/14 12:11:00;;;;;;;11.17;8.43;;;;;;;;;;5068230;28;20459;-54
2021/11/14 12:13:28;;;;;;;9.77;7.60;;;;;;;;;;5068206;28;20421;-54
2021/11/14 12:15:57;;;;;;;9.20;7.10;;;;;;;;;;5068048;28;20402;-53
2021/11/14 12:18:23;;;;;;;9.53;8.30;;;;;;;;;;5067892;28;20396;-53
2021/11/14 12:20:50;;;;;;;14.77;8.67;;;;;;;;;;5067893;28;20391;-53
2021/11/14 12:23:37;;;;;;;11.67;8.00;;;;;;;;;;5067981;28;20852;-54
2021/11/14 12:26:11;;;;;;;10.10;7.97;;;;;;;;;;5067895;28;20408;-53
2021/11/14 12:28:40;;;;;;;10.80;8.50;;;;;;;;;;5067766;28;20419;-54
2021/11/14 12:31:11;;;;;;;9.23;7.30;;;;;;;;;;5067634;28;20449;-53
2021/11/14 12:33:39;;;;;;;12.03;7.80;;;;;;;;;;5058128;28;20394;-54
2021/11/14 12:36:19;;;;;;;9.70;7.23;;;;;;;;;;5054476;28;20404;-53
2021/11/14 12:38:45;;;;;;;7.93;6.57;;;;;;;;;;5054427;28;20398;-54
2021/11/14 12:41:12;;;;;;;7.20;6.00;;;;;;;;;;5054483;28;20471;-53
2021/11/14 12:43:48;;;;;;;8.60;6.63;;;;;;;;;;5053253;28;20421;-53
2021/11/14 12:46:17;;;;;;;8.17;6.27;;;;;;;;;;5054347;28;20760;-53
2021/11/14 12:48:45;;;;;;;8.27;5.60;;;;;;;;;;5054152;28;20414;-54
2021/11/14 12:51:13;;;;;;;8.37;6.20;;;;;;;;;;5054184;28;20960;-53
2021/11/14 12:53:48;;;;;;;8.60;6.60;;;;;;;;;;5054169;28;20424;-54
2021/11/14 12:56:14;;;;;;;8.00;5.80;;;;;;;;;;5054073;28;20504;-53
2021/11/14 12:58:40;;;;;;;8.80;6.57;;;;;;;;;;5053999;28;20760;-53
2021/11/14 13:01:06;;;;;;;7.77;5.93;;;;;;;;;;5054062;28;20409;-53
2021/11/14 13:03:35;;;;;;;6.40;5.80;;;;;;;;;;5053987;28;20421;-53
2021/11/14 13:06:03;;;;;;;7.77;5.97;;;;;;;;;;5053965;28;20491;-54
2021/11/14 13:08:29;;;;;;;6.83;6.20;;;;;;;;;;5053843;28;20401;-54
2021/11/14 13:10:56;;;;;;;7.70;5.63;;;;;;;;;;5053721;28;20542;-53
2021/11/14 13:13:34;;;;;;;6.13;5.03;;;;;;;;;;5053791;28;20421;-53
2021/11/14 13:16:02;;;;;;;5.70;4.87;;;;;;;;;;5053709;28;20409;-53
2021/11/14 13:18:28;;;;;;;6.20;4.13;;;;;;;;;;5053611;28;20892;-53
2021/11/14 13:20:55;;;;;;;6.33;5.50;;;;;;;;;;5053726;28;20424;-53
2021/11/14 13:23:25;;;;;;;9.80;6.70;;;;;;;;;;5053515;28;20475;-53
2021/11/14 13:25:51;;;;;;;8.83;6.03;;;;;;;;;;5053606;28;20455;-54
2021/11/14 13:28:17;;;;;;;8.30;6.13;;;;;;;;;;5053618;28;20900;-54
2021/11/14 13:30:44;;;;;;;7.53;5.57;;;;;;;;;;5053443;28;20413;-53
2021/11/14 13:33:14;;;;;;;10.07;6.40;;;;;;;;;;5053693;28;20892;-53
2021/11/14 13:35:40;;;;;;;6.20;5.40;;;;;;;;;;5053345;28;20402;-54
2021/11/14 13:38:06;;;;;;;6.50;5.03;;;;;;;;;;5053329;28;20488;-53
2021/11/14 13:40:32;;;;;;;7.13;4.57;;;;;;;;;;5053224;28;20477;-54
2021/11/14 13:43:02;;;;;;;7.23;4.70;;;;;;;;;;5053530;28;20901;-53
2021/11/14 13:45:33;;;;;;;5.90;5.03;;;;;;;;;;5052244;28;20540;-53
2021/11/14 13:47:59;;;;;;;5.67;5.17;;;;;;;;;;5053231;28;20869;-53
2021/11/14 13:50:30;;;;;;;6.97;4.93;;;;;;;;;;5052919;28;20408;-53
2021/11/14 13:53:17;;;;;;;7.63;5.40;;;;;;;;;;5053022;28;20433;-53
2021/11/14 13:55:48;;;;;;;5.97;4.63;;;;;;;;;;5052951;28;20499;-53
2021/11/14 13:58:14;;;;;;;6.70;5.33;;;;;;;;;;5052817;28;20398;-54
2021/11/14 14:00:41;;;;;;;5.10;4.60;;;;;;;;;;5050494;28;20406;-51
2021/11/14 14:03:24;;;;;;;6.13;5.00;;;;;;;;;;5041866;28;20420;-51
2021/11/14 14:05:50;;;;;;;6.17;5.23;;;;;;;;;;5032907;28;20390;-51
2021/11/14 14:08:42;;;;;;;10.23;5.67;;;;;;;;;;5032781;28;20461;-51
2021/11/14 14:11:09;;;;;;;7.13;5.30;;;;;;;;;;5030637;28;20524;-51
2021/11/14 14:13:37;;;;;;;6.30;5.20;;;;;;;;;;5032658;28;20780;-51
2021/11/14 14:16:04;;;;;;;6.30;5.70;;;;;;;;;;5032762;28;20406;-51
2021/11/14 14:18:37;;;;;;;22.57;4.80;;;;;;;;;;5032518;28;20426;-51
2021/11/14 14:21:05;;;;;;;6.10;4.83;;;;;;;;;;5032656;28;20459;-51
2021/11/14 14:23:33;;;;;;;5.13;4.63;;;;;;;;;;5032625;28;20836;-51
2021/11/14 14:25:59;;;;;;;7.20;5.93;;;;;;;;;;5032547;28;20906;-51
2021/11/14 14:28:27;;;;;;;7.00;6.17;;;;;;;;;;5032336;28;20496;-50
2021/11/14 14:30:57;;;;;;;6.70;6.00;;;;;;;;;;5032415;28;20446;-51